Airfield :
LOGIN :

Register | Disclaimer

   EN    FR    IT 

 










Legend :    VFR   Marginal VFR   IFR   Intensive IFR   Very Intensive IFR
Visi :
Ceiling :
>= 8 km
>= 3000ft
5 to 8 km
1000 to 3000 ft
1500m to 5 km
500 to 1000 ft
800 to 1500m
200 to 500 ft
< 800m
< 200 ft
Symbols :   Thunderstorms  Fog  Heavy snow  Heavy precipitations  Wind > 20 kt
SIGMETs :     Misc.  Thunderstorms  Icing  Turbulence  Mountain Waves  Volcanic Ashes







- Airport Elevation : 160 ft
- IATA code : FMO


EDDG - Münster Osnabrück Int.

CURRENT METAR :
  • 190220Z 25008KT CAVOK 03/02 Q1012 NOSIG

EXPIRED METARs :
  • 190150Z 25009KT CAVOK 04/02 Q1012 NOSIG
  • 190120Z 25010KT CAVOK 04/03 Q1012 NOSIG
  • 190050Z 24009KT CAVOK 04/03 Q1013 NOSIG
  • 190020Z 25009KT 9999 SCT043 BKN060 04/03 Q1013 NOSIG
  • 182350Z 24007KT 9999 SCT041 BKN060 04/03 Q1013 NOSIG

TAF TAF EDDG
Valid from the 19 at 00:00 until the 20 at 00:00 UTC


182300Z 1900/1924 24008KT 9999 SCT020
BECMG 1903/1906 26013KT
BECMG 1908/1911 27015G25KT
TEMPO 1909/1915 SHRA BKN020CB
TEMPO 1912/1915 27020G30KT
BECMG 1916/1918 27011KT
No reported NOTAMs for that airfield.



MET'MAP, your aeronautical weather chart ! - Copyright ORBIFLY December 2007 - Disclaimer

ORBIFLY MET'MAP TEAM :

Programming & Development : Alexandra Zaïnal
Concept & Development : Baudouin d'Aumeries
Co-Development & Prog : Marc-Olivier Méhu
Technical & hardware support : Manuel Goepfert

Contact : metmap@orbifly.com




SOURCES & CREDITS :

   NOAA